createdAt,value
2016-05-09T00:00:29.043Z,1006.44
2016-05-09T00:01:28.671Z,1006.46
2016-05-09T00:02:28.660Z,1006.48
2016-05-09T00:03:28.646Z,1006.44
2016-05-09T00:04:28.618Z,1006.45
2016-05-09T00:05:28.589Z,1006.46
2016-05-09T00:06:28.904Z,1006.44
2016-05-09T00:07:28.626Z,1006.42
2016-05-09T00:08:28.676Z,1006.42
2016-05-09T00:09:28.818Z,1006.44
2016-05-09T00:10:28.509Z,1006.4
2016-05-09T00:11:28.480Z,1006.4
2016-05-09T00:12:28.467Z,1006.44
2016-05-09T00:13:28.454Z,1006.41
2016-05-09T00:14:28.442Z,1006.39
2016-05-09T00:15:28.506Z,1006.44
2016-05-09T00:16:28.400Z,1006.41
2016-05-09T00:17:28.433Z,1006.39
2016-05-09T00:18:28.389Z,1006.38
2016-05-09T00:19:28.330Z,1006.38
2016-05-09T00:20:28.302Z,1006.36
2016-05-09T00:21:28.305Z,1006.39
2016-05-09T00:22:28.682Z,1006.34
2016-05-09T00:23:28.263Z,1006.35
2016-05-09T00:24:28.296Z,1006.34
2016-05-09T00:25:28.221Z,1006.35
2016-05-09T00:26:28.207Z,1006.37
2016-05-09T00:27:28.180Z,1006.37
2016-05-09T00:28:29.010Z,1006.34
2016-05-09T00:29:28.154Z,1006.37
2016-05-09T00:30:28.579Z,1006.37
2016-05-09T00:31:28.409Z,1006.38
2016-05-09T00:32:28.380Z,1006.39
2016-05-09T00:33:28.165Z,1006.4
2016-05-09T00:34:28.073Z,1006.4
2016-05-09T00:35:28.248Z,1006.43
2016-05-09T00:36:28.516Z,1006.4
2016-05-09T00:37:28.003Z,1006.42
2016-05-09T00:38:27.990Z,1006.42
2016-05-09T00:39:28.431Z,1006.41
2016-05-09T00:40:27.934Z,1006.38
2016-05-09T00:41:27.904Z,1006.41
2016-05-09T00:42:28.532Z,1006.42
2016-05-09T00:43:28.145Z,1006.39
2016-05-09T00:44:27.913Z,1006.42
2016-05-09T00:45:27.852Z,1006.39
2016-05-09T00:46:27.825Z,1006.39
2016-05-09T00:47:27.780Z,1006.38
2016-05-09T00:48:27.861Z,1006.36
2016-05-09T00:49:28.097Z,1006.38
2016-05-09T00:50:27.758Z,1006.38
2016-05-09T00:51:27.713Z,1006.41
2016-05-09T00:52:27.700Z,1006.42
2016-05-09T00:53:27.702Z,1006.4
2016-05-09T00:54:27.674Z,1006.44
2016-05-09T00:55:27.661Z,1006.41
2016-05-09T00:56:27.632Z,1006.41
2016-05-09T00:57:27.619Z,1006.48
2016-05-09T00:58:27.825Z,1006.47
2016-05-09T00:59:27.782Z,1006.48
2016-05-09T01:00:27.534Z,1006.42
2016-05-09T01:01:27.537Z,1006.44
2016-05-09T01:02:27.524Z,1006.41
2016-05-09T01:03:27.917Z,1006.45
2016-05-09T01:04:27.795Z,1006.44
2016-05-09T01:05:27.438Z,1006.42
2016-05-09T01:06:27.425Z,1006.39
2016-05-09T01:07:27.412Z,1006.4
2016-05-09T01:08:27.539Z,1006.41
2016-05-09T01:09:27.355Z,1006.43
2016-05-09T01:10:27.343Z,1006.42
2016-05-09T01:11:27.439Z,1006.42
2016-05-09T01:12:27.441Z,1006.41
2016-05-09T01:13:27.772Z,1006.41
2016-05-09T01:14:27.258Z,1006.42
2016-05-09T01:15:27.246Z,1006.43
2016-05-09T01:16:27.234Z,1006.41
2016-05-09T01:17:27.298Z,1006.41
2016-05-09T01:18:27.473Z,1006.4
2016-05-09T01:19:27.256Z,1006.45
2016-05-09T01:20:27.150Z,1006.44
2016-05-09T01:21:27.136Z,1006.44
2016-05-09T01:22:27.140Z,1006.44
2016-05-09T01:23:27.142Z,1006.42
2016-05-09T01:24:27.099Z,1006.39
2016-05-09T01:25:27.069Z,1006.4
2016-05-09T01:26:27.041Z,1006.41
2016-05-09T01:27:27.028Z,1006.43
2016-05-09T01:28:27.110Z,1006.45
2016-05-09T01:29:27.299Z,1006.43
2016-05-09T01:30:27.083Z,1006.4
2016-05-09T01:31:27.085Z,1006.39
2016-05-09T01:32:26.916Z,1006.44
2016-05-09T01:33:26.904Z,1006.41
2016-05-09T01:34:26.876Z,1006.43
2016-05-09T01:35:27.065Z,1006.43
2016-05-09T01:36:26.834Z,1006.4
2016-05-09T01:37:26.820Z,1006.4
2016-05-09T01:38:27.308Z,1006.42
2016-05-09T01:39:26.780Z,1006.43
2016-05-09T01:40:26.782Z,1006.39
2016-05-09T01:41:27.035Z,1006.38
2016-05-09T01:42:26.725Z,1006.43
2016-05-09T01:43:26.695Z,1006.42
2016-05-09T01:44:26.684Z,1006.43
2016-05-09T01:45:26.717Z,1006.44
2016-05-09T01:46:26.658Z,1006.44
2016-05-09T01:47:26.629Z,1006.44
2016-05-09T01:48:26.616Z,1006.42
2016-05-09T01:49:26.587Z,1006.44
2016-05-09T01:50:26.558Z,1006.43
2016-05-09T01:51:26.562Z,1006.44
2016-05-09T01:52:26.533Z,1006.44
2016-05-09T01:53:26.536Z,1006.39
2016-05-09T01:54:26.491Z,1006.42
2016-05-09T01:55:26.478Z,1006.4
2016-05-09T01:56:26.466Z,1006.43
2016-05-09T01:57:26.484Z,1006.41
2016-05-09T01:58:26.736Z,1006.38
2016-05-09T01:59:26.896Z,1006.35
2016-05-09T02:00:26.382Z,1006.36
2016-05-09T02:01:26.338Z,1006.34
2016-05-09T02:02:26.341Z,1006.36
2016-05-09T02:03:26.297Z,1006.39
2016-05-09T02:04:26.363Z,1006.37
2016-05-09T02:05:26.287Z,1006.35
2016-05-09T02:06:26.257Z,1006.38
2016-05-09T02:07:26.354Z,1006.38
2016-05-09T02:08:26.202Z,1006.36
2016-05-09T02:09:26.345Z,1006.42
2016-05-09T02:10:26.504Z,1006.44
2016-05-09T02:11:26.162Z,1006.45
2016-05-09T02:12:26.181Z,1006.44
2016-05-09T02:13:26.120Z,1006.4
2016-05-09T02:14:26.093Z,1006.46
2016-05-09T02:15:26.079Z,1006.44
2016-05-09T02:16:26.067Z,1006.42
2016-05-09T02:17:26.022Z,1006.43
2016-05-09T02:18:26.009Z,1006.45
2016-05-09T02:19:25.996Z,1006.48
2016-05-09T02:20:25.999Z,1006.48
2016-05-09T02:21:26.017Z,1006.49
2016-05-09T02:22:25.942Z,1006.49
2016-05-09T02:23:25.920Z,1006.48
2016-05-09T02:24:25.923Z,1006.46
2016-05-09T02:25:26.378Z,1006.52
2016-05-09T02:26:25.897Z,1006.48
2016-05-09T02:27:25.838Z,1006.48
2016-05-09T02:28:25.809Z,1006.43
2016-05-09T02:29:25.842Z,1006.48
2016-05-09T02:30:25.767Z,1006.45
2016-05-09T02:31:25.770Z,1006.44
2016-05-09T02:32:25.757Z,1006.45
2016-05-09T02:33:25.854Z,1006.43
2016-05-09T02:34:25.746Z,1006.41
2016-05-09T02:35:25.843Z,1006.4
2016-05-09T02:36:25.658Z,1006.42
2016-05-09T02:37:25.989Z,1006.44
2016-05-09T02:38:25.601Z,1006.45
2016-05-09T02:39:25.589Z,1006.48
2016-05-09T02:40:25.575Z,1006.42
2016-05-09T02:41:25.547Z,1006.44
2016-05-09T02:42:25.534Z,1006.46
2016-05-09T02:43:25.489Z,1006.44
2016-05-09T02:44:25.523Z,1006.42
2016-05-09T02:45:25.480Z,1006.43
2016-05-09T02:46:25.450Z,1006.43
2016-05-09T02:47:25.531Z,1006.39
2016-05-09T02:48:25.394Z,1006.4
2016-05-09T02:49:25.397Z,1006.41
2016-05-09T02:50:25.368Z,1006.36
2016-05-09T02:51:25.371Z,1006.42
2016-05-09T02:52:25.326Z,1006.43
2016-05-09T02:53:25.297Z,1006.43
2016-05-09T02:54:25.284Z,1006.43
2016-05-09T02:55:25.272Z,1006.42
2016-05-09T02:56:25.305Z,1006.46
2016-05-09T02:57:25.262Z,1006.42
2016-05-09T02:58:25.217Z,1006.43
2016-05-09T02:59:25.174Z,1006.46
2016-05-09T03:00:25.160Z,1006.47
2016-05-09T03:01:25.304Z,1006.44
2016-05-09T03:02:25.134Z,1006.44
2016-05-09T03:03:25.106Z,1006.43
2016-05-09T03:04:25.076Z,1006.46
2016-05-09T03:05:25.798Z,1006.44
2016-05-09T03:06:25.207Z,1006.44
2016-05-09T03:07:25.023Z,1006.42
2016-05-09T03:08:24.994Z,1006.4
2016-05-09T03:09:25.513Z,1006.39
2016-05-09T03:10:24.968Z,1006.4
2016-05-09T03:11:24.939Z,1006.37
2016-05-09T03:12:24.927Z,1006.39
2016-05-09T03:13:24.914Z,1006.35
2016-05-09T03:14:25.386Z,1006.38
2016-05-09T03:15:25.122Z,1006.39
2016-05-09T03:16:25.234Z,1006.4
2016-05-09T03:17:24.894Z,1006.41
2016-05-09T03:18:25.427Z,1006.38
2016-05-09T03:19:24.992Z,1006.37
2016-05-09T03:20:24.808Z,1006.39
2016-05-09T03:21:24.733Z,1006.39
2016-05-09T03:22:24.719Z,1006.4
2016-05-09T03:23:24.707Z,1006.39
2016-05-09T03:24:24.677Z,1006.42
2016-05-09T03:25:24.821Z,1006.39
2016-05-09T03:26:24.668Z,1006.41
2016-05-09T03:27:24.718Z,1006.39
2016-05-09T03:28:24.627Z,1006.37
2016-05-09T03:29:24.582Z,1006.39
2016-05-09T03:30:24.569Z,1006.41
2016-05-09T03:31:24.540Z,1006.37
2016-05-09T03:32:24.527Z,1006.35
2016-05-09T03:33:24.498Z,1006.41
2016-05-09T03:34:24.487Z,1006.41
2016-05-09T03:35:24.551Z,1006.4
2016-05-09T03:36:24.460Z,1006.41
2016-05-09T03:37:24.415Z,1006.38
2016-05-09T03:38:24.419Z,1006.39
2016-05-09T03:39:24.375Z,1006.43
2016-05-09T03:40:24.362Z,1006.4
2016-05-09T03:41:24.333Z,1006.39
2016-05-09T03:42:24.304Z,1006.41
2016-05-09T03:43:24.291Z,1006.41
2016-05-09T03:44:24.279Z,1006.41
2016-05-09T03:45:24.250Z,1006.37
2016-05-09T03:46:24.284Z,1006.41
2016-05-09T03:47:24.208Z,1006.38
2016-05-09T03:48:24.211Z,1006.39
2016-05-09T03:49:30.777Z,1006.43
2016-05-09T03:50:24.185Z,1006.41
2016-05-09T03:51:26.563Z,1006.39
2016-05-09T03:52:24.128Z,1006.39
2016-05-09T03:53:24.083Z,1006.38
2016-05-09T03:54:24.102Z,1006.39
2016-05-09T03:55:24.043Z,1006.37
2016-05-09T03:56:24.030Z,1006.4
2016-05-09T03:57:24.157Z,1006.41
2016-05-09T03:58:23.988Z,1006.41
2016-05-09T03:59:24.209Z,1006.41
2016-05-09T04:00:23.978Z,1006.4
2016-05-09T04:01:23.934Z,1006.38
2016-05-09T04:02:23.921Z,1006.38
2016-05-09T04:03:23.892Z,1006.42
2016-05-09T04:04:23.863Z,1006.39
2016-05-09T04:05:23.850Z,1006.39
2016-05-09T04:06:23.823Z,1006.35
2016-05-09T04:07:23.809Z,1006.38
2016-05-09T04:08:23.796Z,1006.38
2016-05-09T04:09:23.751Z,1006.37
2016-05-09T04:10:23.754Z,1006.35
2016-05-09T04:11:23.756Z,1006.35
2016-05-09T04:12:23.714Z,1006.34
2016-05-09T04:13:23.685Z,1006.41
2016-05-09T04:14:23.656Z,1006.38
2016-05-09T04:15:23.642Z,1006.43
2016-05-09T04:16:23.630Z,1006.41
2016-05-09T04:17:23.617Z,1006.41
2016-05-09T04:18:23.589Z,1006.44
2016-05-09T04:19:23.561Z,1006.42
2016-05-09T04:20:23.547Z,1006.44
2016-05-09T04:21:23.533Z,1006.42
2016-05-09T04:22:23.521Z,1006.45
2016-05-09T04:23:23.477Z,1006.41
2016-05-09T04:24:23.464Z,1006.42
2016-05-09T04:25:23.436Z,1006.44
2016-05-09T04:26:23.422Z,1006.45
2016-05-09T04:27:23.504Z,1006.47
2016-05-09T04:28:23.397Z,1006.43
2016-05-09T04:29:23.352Z,1006.48
2016-05-09T04:30:23.371Z,1006.41
2016-05-09T04:31:23.311Z,1006.45
2016-05-09T04:32:23.282Z,1006.45
2016-05-09T04:33:23.285Z,1006.49
2016-05-09T04:34:23.304Z,1006.48
2016-05-09T04:35:23.228Z,1006.52
2016-05-09T04:36:23.215Z,1006.49
2016-05-09T04:37:23.202Z,1006.53
2016-05-09T04:38:23.174Z,1006.53
2016-05-09T04:39:23.161Z,1006.53
2016-05-09T04:40:23.148Z,1006.53
2016-05-09T04:41:23.119Z,1006.51
2016-05-09T04:42:23.106Z,1006.53
2016-05-09T04:43:23.078Z,1006.52
2016-05-09T04:44:23.050Z,1006.49
2016-05-09T04:45:23.021Z,1006.54
2016-05-09T04:46:23.023Z,1006.55
2016-05-09T04:47:22.978Z,1006.55
2016-05-09T04:48:23.013Z,1006.55
2016-05-09T04:49:22.954Z,1006.53
2016-05-09T04:50:22.940Z,1006.56
2016-05-09T04:51:23.115Z,1006.57
2016-05-09T04:52:22.883Z,1006.54
2016-05-09T04:53:22.870Z,1006.55
2016-05-09T04:54:22.841Z,1006.6
2016-05-09T04:55:22.845Z,1006.63
2016-05-09T04:56:22.816Z,1006.63
2016-05-09T04:57:22.772Z,1006.59
2016-05-09T04:58:22.758Z,1006.6
2016-05-09T04:59:22.746Z,1006.59
2016-05-09T05:00:22.732Z,1006.58
2016-05-09T05:01:22.689Z,1006.62
2016-05-09T05:02:22.691Z,1006.59
2016-05-09T05:03:22.663Z,1006.62
2016-05-09T05:04:22.759Z,1006.68
2016-05-09T05:05:22.637Z,1006.66
2016-05-09T05:06:22.593Z,1006.66
2016-05-09T05:07:22.580Z,1006.61
2016-05-09T05:08:22.551Z,1006.64
2016-05-09T05:09:22.538Z,1006.64
2016-05-09T05:10:22.526Z,1006.64
2016-05-09T05:11:22.528Z,1006.61
2016-05-09T05:12:22.484Z,1006.6
2016-05-09T05:13:22.471Z,1006.63
2016-05-09T05:14:22.458Z,1006.6
2016-05-09T05:15:22.429Z,1006.57
2016-05-09T05:16:22.400Z,1006.6
2016-05-09T05:17:22.389Z,1006.62
2016-05-09T05:18:22.359Z,1006.6
2016-05-09T05:19:22.331Z,1006.62
2016-05-09T05:20:22.317Z,1006.63
2016-05-09T05:21:22.305Z,1006.59
2016-05-09T05:22:22.276Z,1006.61
2016-05-09T05:23:22.264Z,1006.59
2016-05-09T05:24:22.220Z,1006.59
2016-05-09T05:25:22.238Z,1006.56
2016-05-09T05:26:22.193Z,1006.59
2016-05-09T05:27:22.165Z,1006.55
2016-05-09T05:28:22.152Z,1006.6
2016-05-09T05:29:22.124Z,1006.57
2016-05-09T05:30:22.142Z,1006.59
2016-05-09T05:31:22.113Z,1006.58
2016-05-09T05:32:22.068Z,1006.59
2016-05-09T05:33:22.056Z,1006.63
2016-05-09T05:34:22.043Z,1006.62
2016-05-09T05:35:22.015Z,1006.67
2016-05-09T05:36:22.065Z,1006.63
2016-05-09T05:37:21.988Z,1006.64
2016-05-09T05:38:21.960Z,1006.64
2016-05-09T05:39:21.947Z,1006.65
2016-05-09T05:40:21.950Z,1006.62
2016-05-09T05:41:21.906Z,1006.65
2016-05-09T05:42:21.862Z,1006.63
2016-05-09T05:43:21.848Z,1006.64
2016-05-09T05:44:21.836Z,1006.66
2016-05-09T05:45:21.823Z,1006.65
2016-05-09T05:46:21.826Z,1006.68
2016-05-09T05:47:21.765Z,1006.66
2016-05-09T05:48:21.737Z,1006.68
2016-05-09T05:49:21.724Z,1006.7
2016-05-09T05:50:21.727Z,1006.71
2016-05-09T05:51:21.697Z,1006.71
2016-05-09T05:52:21.653Z,1006.73
2016-05-09T05:53:21.673Z,1006.72
2016-05-09T05:54:21.644Z,1006.69
2016-05-09T05:55:21.662Z,1006.72
2016-05-09T05:56:21.586Z,1006.74
2016-05-09T05:57:21.558Z,1006.72
2016-05-09T05:59:21.532Z,1006.7
2016-05-09T06:00:21.562Z,1006.73
2016-05-09T06:01:21.562Z,1006.77
2016-05-09T06:02:21.593Z,1006.73
2016-05-09T06:03:21.624Z,1006.75
2016-05-09T06:04:21.687Z,1006.75
2016-05-09T06:05:21.642Z,1006.77
2016-05-09T06:06:21.630Z,1006.76
2016-05-09T06:07:21.616Z,1006.8
2016-05-09T06:08:21.619Z,1006.77
2016-05-09T06:09:21.622Z,1006.77
2016-05-09T06:10:21.615Z,1006.76
2016-05-09T06:11:21.607Z,1006.81
2016-05-09T06:12:21.601Z,1006.78
2016-05-09T06:13:21.563Z,1006.75
2016-05-09T06:14:21.732Z,1006.8
2016-05-09T06:15:21.534Z,1006.8
2016-05-09T06:16:21.538Z,1006.82
2016-05-09T06:17:21.496Z,1006.83
2016-05-09T06:18:21.485Z,1006.86
2016-05-09T06:19:21.536Z,1006.82
2016-05-09T06:20:21.430Z,1006.81
2016-05-09T06:21:21.918Z,1006.81
2016-05-09T06:22:21.421Z,1006.8
2016-05-09T06:23:21.518Z,1006.84
2016-05-09T06:24:21.366Z,1006.8
2016-05-09T06:25:21.337Z,1006.84
2016-05-09T06:26:21.575Z,1006.84
2016-05-09T06:27:21.296Z,1006.82
2016-05-09T06:28:21.283Z,1006.87
2016-05-09T06:29:21.426Z,1006.82
2016-05-09T06:30:21.414Z,1006.82
2016-05-09T06:31:21.213Z,1006.8
2016-05-09T06:32:21.496Z,1006.81
2016-05-09T06:33:21.186Z,1006.83
2016-05-09T06:34:21.674Z,1006.84
2016-05-09T06:35:21.255Z,1006.84
2016-05-09T06:36:21.133Z,1006.85
2016-05-09T06:37:21.135Z,1006.89
2016-05-09T06:38:21.091Z,1006.87
2016-05-09T06:39:21.094Z,1006.88
2016-05-09T06:40:21.049Z,1006.86
2016-05-09T06:41:21.146Z,1006.9
2016-05-09T06:42:21.415Z,1006.9
2016-05-09T06:43:21.042Z,1006.9
2016-05-09T06:44:20.967Z,1006.87
2016-05-09T06:45:20.969Z,1006.9
2016-05-09T06:46:20.941Z,1006.9
2016-05-09T06:47:21.006Z,1006.93
2016-05-09T06:48:21.009Z,1006.92
2016-05-09T06:49:21.496Z,1006.94
2016-05-09T06:50:21.311Z,1006.91
2016-05-09T06:51:21.251Z,1006.89
2016-05-09T06:52:21.066Z,1006.9
2016-05-09T06:54:21.462Z,1006.88
2016-05-09T06:55:21.606Z,1006.89
2016-05-09T06:56:20.968Z,1006.91
2016-05-09T06:57:20.986Z,1006.88
2016-05-09T06:58:21.223Z,1006.88
2016-05-09T06:59:21.226Z,1006.89
2016-05-09T07:00:21.072Z,1006.84
2016-05-09T07:01:21.075Z,1006.83
2016-05-09T07:02:20.827Z,1006.81
2016-05-09T07:03:21.080Z,1006.83
2016-05-09T07:04:21.380Z,1006.91
2016-05-09T07:05:21.976Z,1006.87
2016-05-09T07:06:21.058Z,1006.85
2016-05-09T07:07:21.403Z,1006.83
2016-05-09T07:08:21.156Z,1006.8
2016-05-09T07:09:21.016Z,1006.88
2016-05-09T07:11:20.724Z,1006.87
2016-05-09T07:13:20.761Z,1006.88
2016-05-09T07:15:21.297Z,1006.87
2016-05-09T07:16:21.097Z,1006.87
2016-05-09T07:17:21.646Z,1006.8
2016-05-09T07:18:22.134Z,1006.84
2016-05-09T07:19:22.652Z,1006.82
2016-05-09T07:20:21.560Z,1006.81
2016-05-09T07:21:21.360Z,1006.8
2016-05-09T07:22:21.441Z,1006.82
2016-05-09T07:23:21.397Z,1006.8
2016-05-09T07:24:20.915Z,1006.81
2016-05-09T07:26:21.702Z,1006.75
2016-05-09T07:27:21.439Z,1006.76
2016-05-09T07:28:20.895Z,1006.73
2016-05-09T07:29:20.757Z,1006.78
2016-05-09T07:30:23.323Z,1006.78
2016-05-09T07:31:21.434Z,1006.79
2016-05-09T07:32:21.186Z,1006.75
2016-05-09T07:33:20.659Z,1006.75
2016-05-09T07:34:23.177Z,1006.76
2016-05-09T07:35:20.180Z,1006.73
2016-05-09T07:36:21.183Z,1006.77
2016-05-09T07:37:20.481Z,1006.76
2016-05-09T07:38:20.875Z,1006.76
2016-05-09T07:39:22.784Z,1006.79
2016-05-09T07:40:19.943Z,1006.76
2016-05-09T07:41:20.633Z,1006.77
2016-05-09T07:43:21.294Z,1006.78
2016-05-09T07:44:19.813Z,1006.77
2016-05-09T07:45:19.832Z,1006.75
2016-05-09T07:46:19.771Z,1006.74
2016-05-09T07:47:19.758Z,1006.75
2016-05-09T07:48:19.746Z,1006.73
2016-05-09T07:49:20.170Z,1006.76
2016-05-09T07:50:19.705Z,1006.76
2016-05-09T07:51:19.681Z,1006.72
2016-05-09T07:52:19.668Z,1006.71
2016-05-09T07:53:19.655Z,1006.72
2016-05-09T07:54:19.610Z,1006.72
2016-05-09T07:55:19.622Z,1006.72
2016-05-09T07:56:19.594Z,1006.69
2016-05-09T07:57:19.566Z,1006.7
2016-05-09T07:58:19.568Z,1006.72
2016-05-09T07:59:20.431Z,1006.68
2016-05-09T08:00:19.683Z,1006.63
2016-05-09T08:01:19.607Z,1006.63
2016-05-09T08:02:19.469Z,1006.62
2016-05-09T08:03:19.472Z,1006.59
2016-05-09T08:04:19.428Z,1006.59
2016-05-09T08:05:19.462Z,1006.6
2016-05-09T08:06:19.387Z,1006.58
2016-05-09T08:07:19.529Z,1006.61
2016-05-09T08:08:25.532Z,1006.61
2016-05-09T08:09:19.676Z,1006.58
2016-05-09T08:10:23.429Z,1006.56
2016-05-09T08:11:19.963Z,1006.59
2016-05-09T08:12:19.731Z,1006.58
2016-05-09T08:13:19.281Z,1006.55
2016-05-09T08:14:19.251Z,1006.57
2016-05-09T08:15:19.223Z,1006.54
2016-05-09T08:16:19.242Z,1006.6
2016-05-09T08:17:19.198Z,1006.57
2016-05-09T08:18:19.170Z,1006.54
2016-05-09T08:19:19.156Z,1006.48
2016-05-09T08:20:19.142Z,1006.5
2016-05-09T08:21:19.115Z,1006.5
2016-05-09T08:22:19.102Z,1006.54
2016-05-09T08:23:19.072Z,1006.47
2016-05-09T08:24:19.061Z,1006.49
2016-05-09T08:25:19.048Z,1006.44
2016-05-09T08:26:19.019Z,1006.46
2016-05-09T08:27:19.116Z,1006.45
2016-05-09T08:28:19.274Z,1006.5
2016-05-09T08:29:18.964Z,1006.47
2016-05-09T08:30:19.030Z,1006.43
2016-05-09T08:31:18.969Z,1006.43
2016-05-09T08:32:18.925Z,1006.42
2016-05-09T08:33:18.913Z,1006.47
2016-05-09T08:34:18.884Z,1006.41
2016-05-09T08:35:18.871Z,1006.39
2016-05-09T08:36:18.858Z,1006.42
2016-05-09T08:37:18.830Z,1006.42
2016-05-09T08:38:18.816Z,1006.41
2016-05-09T08:39:18.787Z,1006.41
2016-05-09T08:40:18.806Z,1006.45
2016-05-09T08:41:18.747Z,1006.44
2016-05-09T08:42:18.749Z,1006.42
2016-05-09T08:43:18.737Z,1006.43
2016-05-09T08:44:18.723Z,1006.41
2016-05-09T08:45:18.679Z,1006.45
2016-05-09T08:46:18.651Z,1006.41
2016-05-09T08:47:18.684Z,1006.46
2016-05-09T08:48:18.640Z,1006.4
2016-05-09T08:49:18.690Z,1006.42
2016-05-09T08:50:18.598Z,1006.44
2016-05-09T08:51:18.836Z,1006.41
2016-05-09T08:52:18.542Z,1006.44
2016-05-09T08:53:18.686Z,1006.4
2016-05-09T08:54:18.938Z,1006.36
2016-05-09T08:55:18.519Z,1006.28
2016-05-09T08:56:18.506Z,1006.27
2016-05-09T08:57:18.461Z,1006.32
2016-05-09T08:58:18.433Z,1006.3
2016-05-09T08:59:18.420Z,1006.29
2016-05-09T09:00:18.438Z,1006.28
2016-05-09T09:01:19.082Z,1006.25
2016-05-09T09:02:19.366Z,1006.27
2016-05-09T09:03:19.055Z,1006.23
2016-05-09T09:04:18.355Z,1006.23
2016-05-09T09:05:18.452Z,1006.18
2016-05-09T09:06:18.704Z,1006.24
2016-05-09T09:07:19.598Z,1006.23
2016-05-09T09:08:27.662Z,1006.2
2016-05-09T09:09:18.775Z,1006.16
2016-05-09T09:10:18.246Z,1006.14
2016-05-09T09:11:18.311Z,1006.06
2016-05-09T09:12:18.501Z,1006.12
2016-05-09T09:13:18.224Z,1006.09
2016-05-09T09:14:18.210Z,1006.12
2016-05-09T09:15:18.229Z,1006.07
2016-05-09T09:16:18.138Z,1006.05
2016-05-09T09:17:18.140Z,1006.05
2016-05-09T09:18:18.081Z,1006.1
2016-05-09T09:19:18.068Z,1006.02
2016-05-09T09:20:18.164Z,1006.05
2016-05-09T09:21:18.057Z,1006.07
2016-05-09T09:22:18.028Z,1006.08
2016-05-09T09:23:18.141Z,1006.04
2016-05-09T09:24:17.972Z,1006.06
2016-05-09T09:25:17.959Z,1006.05
2016-05-09T09:26:17.977Z,1006.09
2016-05-09T09:27:18.058Z,1006.05
2016-05-09T09:28:18.342Z,1005.96
2016-05-09T09:29:17.953Z,1006.04
2016-05-09T09:30:18.894Z,1006
2016-05-09T09:31:18.130Z,1006.03
2016-05-09T09:32:17.822Z,1006.07
2016-05-09T09:33:18.011Z,1006
2016-05-09T09:34:17.811Z,1005.97
2016-05-09T09:35:17.877Z,1005.96
2016-05-09T09:36:17.769Z,1005.93
2016-05-09T09:37:17.835Z,1005.94
2016-05-09T09:38:17.744Z,1005.94
2016-05-09T09:39:18.262Z,1005.89
2016-05-09T09:40:17.671Z,1005.91
2016-05-09T09:41:17.815Z,1005.88
2016-05-09T09:42:17.660Z,1005.92
2016-05-09T09:43:17.648Z,1005.92
2016-05-09T09:44:17.665Z,1005.91
2016-05-09T09:45:17.622Z,1005.91
2016-05-09T09:46:17.593Z,1005.89
2016-05-09T09:47:17.595Z,1005.88
2016-05-09T09:48:17.537Z,1005.84
2016-05-09T09:49:18.070Z,1005.96
2016-05-09T09:50:17.604Z,1005.9
2016-05-09T09:51:17.512Z,1005.86
2016-05-09T09:52:18.047Z,1005.84
2016-05-09T09:53:17.581Z,1005.82
2016-05-09T09:55:17.431Z,1005.71
2016-05-09T09:56:17.511Z,1005.77
2016-05-09T09:57:17.436Z,1005.72
2016-05-09T09:58:17.375Z,1005.73
2016-05-09T09:59:17.394Z,1005.68
2016-05-09T10:00:17.349Z,1005.72
2016-05-09T10:02:17.356Z,1005.63
2016-05-09T10:03:17.280Z,1005.69
2016-05-09T10:04:17.267Z,1005.74
2016-05-09T10:05:17.333Z,1005.72
2016-05-09T10:06:17.507Z,1005.72
2016-05-09T10:07:17.321Z,1005.7
2016-05-09T10:08:17.199Z,1005.67
2016-05-09T10:09:17.530Z,1005.69
2016-05-09T10:10:17.204Z,1005.68
2016-05-09T10:11:17.270Z,1005.66
2016-05-09T10:12:17.132Z,1005.61
2016-05-09T10:13:20.541Z,1005.64
2016-05-09T10:14:17.200Z,1005.64
2016-05-09T10:15:17.093Z,1005.61
2016-05-09T10:16:20.877Z,1005.59
2016-05-09T10:17:17.865Z,1005.56
2016-05-09T10:18:17.039Z,1005.62
2016-05-09T10:19:17.151Z,1005.62
2016-05-09T10:20:17.045Z,1005.62
2016-05-09T10:21:17.343Z,1005.64
2016-05-09T10:22:16.940Z,1005.53
2016-05-09T10:23:16.928Z,1005.66
2016-05-09T10:24:16.898Z,1005.65
2016-05-09T10:25:16.917Z,1005.65
2016-05-09T10:26:16.873Z,1005.67
2016-05-09T10:27:16.875Z,1005.62
2016-05-09T10:28:16.847Z,1005.62
2016-05-09T10:30:17.165Z,1005.64
2016-05-09T10:31:16.808Z,1005.61
2016-05-09T10:32:16.827Z,1005.73
2016-05-09T10:33:16.797Z,1005.64
2016-05-09T10:34:17.442Z,1005.67
2016-05-09T10:35:16.756Z,1005.64
2016-05-09T10:36:16.713Z,1005.63
2016-05-09T10:37:16.730Z,1005.63
2016-05-09T10:38:16.686Z,1005.62
2016-05-09T10:39:16.657Z,1005.58
2016-05-09T10:40:16.629Z,1005.62
2016-05-09T10:41:16.616Z,1005.56
2016-05-09T10:42:16.635Z,1005.54
2016-05-09T10:43:16.607Z,1005.58
2016-05-09T10:44:16.874Z,1005.58
2016-05-09T10:45:16.565Z,1005.56
2016-05-09T10:46:16.535Z,1005.53
2016-05-09T10:47:17.101Z,1005.55
2016-05-09T10:48:16.526Z,1005.51
2016-05-09T10:49:16.498Z,1005.59
2016-05-09T10:50:16.640Z,1005.5
2016-05-09T10:51:16.471Z,1005.61
2016-05-09T10:52:19.661Z,1005.61
2016-05-09T10:53:16.414Z,1005.53
2016-05-09T10:54:16.526Z,1005.57
2016-05-09T10:55:19.748Z,1005.55
2016-05-09T10:56:16.376Z,1005.56
2016-05-09T10:57:16.362Z,1005.52
2016-05-09T10:58:16.350Z,1005.55
2016-05-09T10:59:16.555Z,1005.62
2016-05-09T11:00:16.292Z,1005.57
2016-05-09T11:01:16.280Z,1005.55
2016-05-09T11:02:16.250Z,1005.56
2016-05-09T11:03:16.285Z,1005.58
2016-05-09T11:04:16.225Z,1005.62
2016-05-09T11:05:16.602Z,1005.58
2016-05-09T11:06:16.183Z,1005.56
2016-05-09T11:07:16.171Z,1005.64
2016-05-09T11:08:16.174Z,1005.58
2016-05-09T11:09:16.222Z,1005.55
2016-05-09T11:10:16.116Z,1005.55
2016-05-09T11:11:16.118Z,1005.45
2016-05-09T11:12:16.105Z,1005.48
2016-05-09T11:13:16.250Z,1005.5
2016-05-09T11:14:16.127Z,1005.51
2016-05-09T11:15:19.614Z,1005.48
2016-05-09T11:16:16.116Z,1005.47
2016-05-09T11:17:16.134Z,1005.47
2016-05-09T11:18:16.153Z,1005.48
2016-05-09T11:19:15.984Z,1005.53
2016-05-09T11:20:16.284Z,1005.52
2016-05-09T11:21:16.536Z,1005.55
2016-05-09T11:22:16.054Z,1005.48
2016-05-09T11:23:15.917Z,1005.52
2016-05-09T11:24:16.451Z,1005.5
2016-05-09T11:25:15.876Z,1005.52
2016-05-09T11:26:16.393Z,1005.5
2016-05-09T11:27:15.865Z,1005.5
2016-05-09T11:28:15.853Z,1005.48
2016-05-09T11:29:15.808Z,1005.47
2016-05-09T11:30:16.075Z,1005.51
2016-05-09T11:31:16.314Z,1005.4
2016-05-09T11:32:15.753Z,1005.47
2016-05-09T11:35:15.761Z,1005.41
2016-05-09T11:36:15.702Z,1005.44
2016-05-09T11:37:15.736Z,1005.46
2016-05-09T11:38:15.755Z,1005.47
2016-05-09T11:39:16.272Z,1005.45
2016-05-09T11:40:16.213Z,1005.47
2016-05-09T11:41:15.669Z,1005.46
2016-05-09T11:42:15.608Z,1005.38
2016-05-09T11:43:15.658Z,1005.36
2016-05-09T11:44:16.708Z,1005.39
2016-05-09T11:45:15.585Z,1005.4
2016-05-09T11:46:15.541Z,1005.45
2016-05-09T11:47:15.512Z,1005.38
2016-05-09T11:48:15.469Z,1005.37
2016-05-09T11:49:15.455Z,1005.35
2016-05-09T11:51:15.585Z,1005.35
2016-05-09T11:52:15.557Z,1005.36
2016-05-09T11:53:15.388Z,1005.34
2016-05-09T12:01:24.894Z,1005.21
2016-05-09T12:02:25.381Z,1005.33
2016-05-09T12:06:25.141Z,1005.27
2016-05-09T12:07:24.707Z,1005.28
2016-05-09T12:08:24.664Z,1005.25
2016-05-09T12:09:24.650Z,1005.24
2016-05-09T12:10:24.652Z,1005.29
2016-05-09T12:11:24.608Z,1005.31
2016-05-09T12:12:24.657Z,1005.3
2016-05-09T12:13:24.567Z,1005.26
2016-05-09T12:14:24.554Z,1005.28
2016-05-09T12:15:24.557Z,1005.33
2016-05-09T12:16:24.637Z,1005.22
2016-05-09T12:17:24.530Z,1005.3
2016-05-09T12:18:24.549Z,1005.37
2016-05-09T12:19:24.490Z,1005.35
2016-05-09T12:20:24.601Z,1005.38
2016-05-09T12:21:24.463Z,1005.35
2016-05-09T12:22:24.451Z,1005.31
2016-05-09T12:23:24.438Z,1005.28
2016-05-09T12:24:24.409Z,1005.27
2016-05-09T12:25:24.395Z,1005.28
2016-05-09T12:26:24.367Z,1005.26
2016-05-09T12:27:24.401Z,1005.22
2016-05-09T12:28:24.357Z,1005.22
2016-05-09T12:29:25.282Z,1005.26
2016-05-09T12:30:24.331Z,1005.28
2016-05-09T12:31:24.412Z,1005.25